sensor_id;sensor_type;location;lat;lon;timestamp;P1;durP1;ratioP1;P2;durP2;ratioP2
60653;SDS011;46476;53.614;10.048;2022-07-01T00:00:07;5.45;;;4.13;;
60653;SDS011;46476;53.614;10.048;2022-07-01T00:02:34;4.30;;;3.90;;
60653;SDS011;46476;53.614;10.048;2022-07-01T00:04:59;4.70;;;4.28;;
60653;SDS011;46476;53.614;10.048;2022-07-01T00:07:24;5.70;;;4.03;;
60653;SDS011;46476;53.614;10.048;2022-07-01T00:09:50;4.25;;;3.85;;
60653;SDS011;46476;53.614;10.048;2022-07-01T00:12:15;5.85;;;4.10;;
60653;SDS011;46476;53.614;10.048;2022-07-01T00:14:40;3.63;;;3.30;;
60653;SDS011;46476;53.614;10.048;2022-07-01T00:17:07;2.60;;;2.40;;
60653;SDS011;46476;53.614;10.048;2022-07-01T00:19:32;3.53;;;1.92;;
60653;SDS011;46476;53.614;10.048;2022-07-01T00:21:57;1.52;;;1.42;;
60653;SDS011;46476;53.614;10.048;2022-07-01T00:24:23;2.50;;;1.40;;
60653;SDS011;46476;53.614;10.048;2022-07-01T00:26:48;1.83;;;1.50;;
60653;SDS011;46476;53.614;10.048;2022-07-01T00:29:14;1.75;;;1.17;;
60653;SDS011;46476;53.614;10.048;2022-07-01T00:31:39;2.03;;;1.15;;
60653;SDS011;46476;53.614;10.048;2022-07-01T00:34:04;1.33;;;1.23;;
60653;SDS011;46476;53.614;10.048;2022-07-01T00:36:30;2.28;;;1.50;;
60653;SDS011;46476;53.614;10.048;2022-07-01T00:38:55;2.95;;;1.27;;
60653;SDS011;46476;53.614;10.048;2022-07-01T00:41:20;1.30;;;0.95;;
60653;SDS011;46476;53.614;10.048;2022-07-01T00:43:47;1.33;;;1.17;;
60653;SDS011;46476;53.614;10.048;2022-07-01T00:46:12;1.73;;;1.00;;
60653;SDS011;46476;53.614;10.048;2022-07-01T00:48:37;1.58;;;1.10;;
60653;SDS011;46476;53.614;10.048;2022-07-01T00:51:03;1.45;;;1.13;;
60653;SDS011;46476;53.614;10.048;2022-07-01T00:53:29;2.47;;;1.13;;
60653;SDS011;46476;53.614;10.048;2022-07-01T00:55:55;1.70;;;1.30;;
60653;SDS011;46476;53.614;10.048;2022-07-01T00:58:20;3.05;;;1.50;;
60653;SDS011;46476;53.614;10.048;2022-07-01T01:00:46;2.40;;;1.48;;
60653;SDS011;46476;53.614;10.048;2022-07-01T01:03:12;2.55;;;1.30;;
60653;SDS011;46476;53.614;10.048;2022-07-01T01:05:38;3.88;;;1.42;;
60653;SDS011;46476;53.614;10.048;2022-07-01T01:08:06;4.15;;;1.40;;
60653;SDS011;46476;53.614;10.048;2022-07-01T01:10:34;4.15;;;1.67;;
60653;SDS011;46476;53.614;10.048;2022-07-01T01:13:01;4.05;;;1.60;;
60653;SDS011;46476;53.614;10.048;2022-07-01T01:15:27;2.42;;;1.50;;
60653;SDS011;46476;53.614;10.048;2022-07-01T01:17:54;2.65;;;1.50;;
60653;SDS011;46476;53.614;10.048;2022-07-01T01:20:19;2.28;;;1.70;;
60653;SDS011;46476;53.614;10.048;2022-07-01T01:22:45;4.32;;;1.60;;
60653;SDS011;46476;53.614;10.048;2022-07-01T01:25:17;3.92;;;1.77;;
60653;SDS011;46476;53.614;10.048;2022-07-01T01:27:42;4.60;;;1.90;;
60653;SDS011;46476;53.614;10.048;2022-07-01T01:30:09;4.93;;;2.20;;
60653;SDS011;46476;53.614;10.048;2022-07-01T01:32:39;4.68;;;2.25;;
60653;SDS011;46476;53.614;10.048;2022-07-01T01:35:06;4.25;;;1.67;;
60653;SDS011;46476;53.614;10.048;2022-07-01T01:37:32;5.50;;;2.10;;
60653;SDS011;46476;53.614;10.048;2022-07-01T01:39:58;3.60;;;1.92;;
60653;SDS011;46476;53.614;10.048;2022-07-01T01:42:23;4.30;;;2.17;;
60653;SDS011;46476;53.614;10.048;2022-07-01T01:44:49;2.67;;;1.70;;
60653;SDS011;46476;53.614;10.048;2022-07-01T01:47:14;2.38;;;1.90;;
60653;SDS011;46476;53.614;10.048;2022-07-01T01:49:39;5.38;;;1.80;;
60653;SDS011;46476;53.614;10.048;2022-07-01T01:52:05;5.95;;;1.70;;
60653;SDS011;46476;53.614;10.048;2022-07-01T01:54:31;2.80;;;2.00;;
60653;SDS011;46476;53.614;10.048;2022-07-01T01:56:57;3.00;;;2.22;;
60653;SDS011;46476;53.614;10.048;2022-07-01T01:59:22;5.20;;;2.10;;
60653;SDS011;46476;53.614;10.048;2022-07-01T02:01:47;3.05;;;1.92;;
60653;SDS011;46476;53.614;10.048;2022-07-01T02:04:13;3.70;;;1.85;;
60653;SDS011;46476;53.614;10.048;2022-07-01T02:06:38;3.05;;;1.88;;
60653;SDS011;46476;53.614;10.048;2022-07-01T02:09:06;2.78;;;2.00;;
60653;SDS011;46476;53.614;10.048;2022-07-01T02:11:32;2.92;;;2.15;;
60653;SDS011;46476;53.614;10.048;2022-07-01T02:13:57;4.32;;;2.53;;
60653;SDS011;46476;53.614;10.048;2022-07-01T02:16:23;1.92;;;1.70;;
60653;SDS011;46476;53.614;10.048;2022-07-01T02:18:48;3.45;;;2.17;;
60653;SDS011;46476;53.614;10.048;2022-07-01T02:21:14;3.30;;;2.05;;
60653;SDS011;46476;53.614;10.048;2022-07-01T02:23:39;2.67;;;1.70;;
60653;SDS011;46476;53.614;10.048;2022-07-01T02:26:05;2.80;;;1.80;;
60653;SDS011;46476;53.614;10.048;2022-07-01T02:28:31;4.43;;;2.25;;
60653;SDS011;46476;53.614;10.048;2022-07-01T02:30:56;3.15;;;2.22;;
60653;SDS011;46476;53.614;10.048;2022-07-01T02:33:21;2.58;;;2.20;;
60653;SDS011;46476;53.614;10.048;2022-07-01T02:35:47;3.40;;;2.00;;
60653;SDS011;46476;53.614;10.048;2022-07-01T02:38:13;2.60;;;2.17;;
60653;SDS011;46476;53.614;10.048;2022-07-01T02:40:38;2.35;;;1.80;;
60653;SDS011;46476;53.614;10.048;2022-07-01T02:43:05;3.83;;;2.10;;
60653;SDS011;46476;53.614;10.048;2022-07-01T02:45:33;4.22;;;2.30;;
60653;SDS011;46476;53.614;10.048;2022-07-01T02:47:58;3.38;;;1.88;;
60653;SDS011;46476;53.614;10.048;2022-07-01T02:50:23;2.50;;;2.05;;
60653;SDS011;46476;53.614;10.048;2022-07-01T02:52:49;2.75;;;2.13;;
60653;SDS011;46476;53.614;10.048;2022-07-01T02:55:14;3.38;;;2.28;;
60653;SDS011;46476;53.614;10.048;2022-07-01T02:57:40;2.33;;;2.05;;
60653;SDS011;46476;53.614;10.048;2022-07-01T03:00:07;3.78;;;2.40;;
60653;SDS011;46476;53.614;10.048;2022-07-01T03:02:35;3.13;;;2.20;;
60653;SDS011;46476;53.614;10.048;2022-07-01T03:05:00;4.75;;;2.17;;
60653;SDS011;46476;53.614;10.048;2022-07-01T03:07:26;2.88;;;2.03;;
60653;SDS011;46476;53.614;10.048;2022-07-01T03:09:51;2.17;;;1.88;;
60653;SDS011;46476;53.614;10.048;2022-07-01T03:12:17;3.85;;;2.53;;
60653;SDS011;46476;53.614;10.048;2022-07-01T03:14:59;3.95;;;2.60;;
60653;SDS011;46476;53.614;10.048;2022-07-01T03:17:25;3.15;;;2.55;;
60653;SDS011;46476;53.614;10.048;2022-07-01T03:19:51;4.22;;;2.70;;
60653;SDS011;46476;53.614;10.048;2022-07-01T03:22:18;3.38;;;2.50;;
60653;SDS011;46476;53.614;10.048;2022-07-01T03:24:44;2.58;;;2.20;;
60653;SDS011;46476;53.614;10.048;2022-07-01T03:27:09;3.22;;;2.47;;
60653;SDS011;46476;53.614;10.048;2022-07-01T03:29:35;5.43;;;3.22;;
60653;SDS011;46476;53.614;10.048;2022-07-01T03:32:01;4.60;;;3.00;;
60653;SDS011;46476;53.614;10.048;2022-07-01T03:34:27;4.82;;;3.22;;
60653;SDS011;46476;53.614;10.048;2022-07-01T03:36:53;5.60;;;3.03;;
60653;SDS011;46476;53.614;10.048;2022-07-01T03:39:18;3.97;;;2.67;;
60653;SDS011;46476;53.614;10.048;2022-07-01T03:41:43;4.22;;;2.70;;
60653;SDS011;46476;53.614;10.048;2022-07-01T03:44:09;5.28;;;2.50;;
60653;SDS011;46476;53.614;10.048;2022-07-01T03:46:34;3.50;;;2.42;;
60653;SDS011;46476;53.614;10.048;2022-07-01T03:49:00;7.30;;;3.28;;
60653;SDS011;46476;53.614;10.048;2022-07-01T03:51:27;4.78;;;4.07;;
60653;SDS011;46476;53.614;10.048;2022-07-01T03:53:52;5.13;;;4.38;;
60653;SDS011;46476;53.614;10.048;2022-07-01T03:56:36;5.82;;;4.40;;
60653;SDS011;46476;53.614;10.048;2022-07-01T03:59:01;5.85;;;4.60;;
60653;SDS011;46476;53.614;10.048;2022-07-01T04:01:27;8.05;;;4.57;;
60653;SDS011;46476;53.614;10.048;2022-07-01T04:03:52;6.75;;;4.47;;
60653;SDS011;46476;53.614;10.048;2022-07-01T04:06:18;6.45;;;4.18;;
60653;SDS011;46476;53.614;10.048;2022-07-01T04:08:44;4.57;;;4.13;;
60653;SDS011;46476;53.614;10.048;2022-07-01T04:11:12;6.03;;;4.20;;
60653;SDS011;46476;53.614;10.048;2022-07-01T04:13:37;3.97;;;3.17;;
60653;SDS011;46476;53.614;10.048;2022-07-01T04:16:04;5.28;;;3.95;;
60653;SDS011;46476;53.614;10.048;2022-07-01T04:18:30;3.90;;;3.33;;
60653;SDS011;46476;53.614;10.048;2022-07-01T04:20:56;4.28;;;3.40;;
60653;SDS011;46476;53.614;10.048;2022-07-01T04:23:40;3.33;;;2.85;;
60653;SDS011;46476;53.614;10.048;2022-07-01T04:26:06;4.03;;;3.35;;
60653;SDS011;46476;53.614;10.048;2022-07-01T04:28:31;4.13;;;3.40;;
60653;SDS011;46476;53.614;10.048;2022-07-01T04:30:57;3.10;;;2.80;;
60653;SDS011;46476;53.614;10.048;2022-07-01T04:33:22;3.00;;;2.47;;
60653;SDS011;46476;53.614;10.048;2022-07-01T04:35:48;2.83;;;2.55;;
60653;SDS011;46476;53.614;10.048;2022-07-01T04:38:13;2.60;;;2.20;;
60653;SDS011;46476;53.614;10.048;2022-07-01T04:40:38;2.50;;;2.17;;
60653;SDS011;46476;53.614;10.048;2022-07-01T04:43:04;3.17;;;2.50;;
60653;SDS011;46476;53.614;10.048;2022-07-01T04:45:29;3.25;;;2.40;;
60653;SDS011;46476;53.614;10.048;2022-07-01T04:47:54;2.83;;;2.08;;
60653;SDS011;46476;53.614;10.048;2022-07-01T04:50:19;3.95;;;2.45;;
60653;SDS011;46476;53.614;10.048;2022-07-01T04:52:45;3.88;;;1.90;;
60653;SDS011;46476;53.614;10.048;2022-07-01T04:55:10;2.80;;;2.45;;
60653;SDS011;46476;53.614;10.048;2022-07-01T04:57:35;3.03;;;2.50;;
60653;SDS011;46476;53.614;10.048;2022-07-01T05:00:01;5.13;;;2.58;;
60653;SDS011;46476;53.614;10.048;2022-07-01T05:02:27;2.83;;;2.17;;
60653;SDS011;46476;53.614;10.048;2022-07-01T05:04:53;4.55;;;2.67;;
60653;SDS011;46476;53.614;10.048;2022-07-01T05:07:19;4.15;;;2.40;;
60653;SDS011;46476;53.614;10.048;2022-07-01T05:09:53;3.60;;;2.45;;
60653;SDS011;46476;53.614;10.048;2022-07-01T05:12:19;4.38;;;3.03;;
60653;SDS011;46476;53.614;10.048;2022-07-01T05:14:45;6.90;;;3.13;;
60653;SDS011;46476;53.614;10.048;2022-07-01T05:17:10;10.70;;;4.22;;
60653;SDS011;46476;53.614;10.048;2022-07-01T05:19:35;10.25;;;3.92;;
60653;SDS011;46476;53.614;10.048;2022-07-01T05:22:19;11.15;;;3.95;;
60653;SDS011;46476;53.614;10.048;2022-07-01T05:24:44;10.30;;;4.30;;
60653;SDS011;46476;53.614;10.048;2022-07-01T05:27:10;7.68;;;3.67;;
60653;SDS011;46476;53.614;10.048;2022-07-01T05:29:36;8.80;;;3.83;;
60653;SDS011;46476;53.614;10.048;2022-07-01T05:32:01;7.28;;;3.08;;
60653;SDS011;46476;53.614;10.048;2022-07-01T05:34:26;6.05;;;2.63;;
60653;SDS011;46476;53.614;10.048;2022-07-01T05:36:52;6.57;;;2.28;;
60653;SDS011;46476;53.614;10.048;2022-07-01T05:39:17;5.90;;;1.85;;
60653;SDS011;46476;53.614;10.048;2022-07-01T05:41:43;4.00;;;1.77;;
60653;SDS011;46476;53.614;10.048;2022-07-01T05:44:08;7.63;;;2.00;;
60653;SDS011;46476;53.614;10.048;2022-07-01T05:46:33;4.10;;;1.50;;
60653;SDS011;46476;53.614;10.048;2022-07-01T05:48:59;5.60;;;1.55;;
60653;SDS011;46476;53.614;10.048;2022-07-01T05:51:24;4.40;;;1.90;;
60653;SDS011;46476;53.614;10.048;2022-07-01T05:53:50;2.60;;;1.15;;
60653;SDS011;46476;53.614;10.048;2022-07-01T05:56:15;1.92;;;1.10;;
60653;SDS011;46476;53.614;10.048;2022-07-01T05:58:40;2.60;;;1.35;;
60653;SDS011;46476;53.614;10.048;2022-07-01T06:01:06;2.25;;;1.17;;
60653;SDS011;46476;53.614;10.048;2022-07-01T06:03:31;1.92;;;1.00;;
60653;SDS011;46476;53.614;10.048;2022-07-01T06:05:56;2.78;;;0.90;;
60653;SDS011;46476;53.614;10.048;2022-07-01T06:08:22;4.28;;;1.48;;
60653;SDS011;46476;53.614;10.048;2022-07-01T06:10:47;3.17;;;1.02;;
60653;SDS011;46476;53.614;10.048;2022-07-01T06:13:13;1.85;;;0.75;;
60653;SDS011;46476;53.614;10.048;2022-07-01T06:15:39;3.40;;;1.20;;
60653;SDS011;46476;53.614;10.048;2022-07-01T06:18:04;2.30;;;1.33;;
60653;SDS011;46476;53.614;10.048;2022-07-01T06:20:30;4.72;;;1.10;;
60653;SDS011;46476;53.614;10.048;2022-07-01T06:22:55;4.75;;;0.90;;
60653;SDS011;46476;53.614;10.048;2022-07-01T06:25:22;1.73;;;0.80;;
60653;SDS011;46476;53.614;10.048;2022-07-01T06:27:48;3.13;;;0.80;;
60653;SDS011;46476;53.614;10.048;2022-07-01T06:30:13;1.92;;;0.88;;
60653;SDS011;46476;53.614;10.048;2022-07-01T06:32:39;4.10;;;0.80;;
60653;SDS011;46476;53.614;10.048;2022-07-01T06:35:04;0.95;;;0.60;;
60653;SDS011;46476;53.614;10.048;2022-07-01T06:37:30;3.15;;;0.85;;
60653;SDS011;46476;53.614;10.048;2022-07-01T06:40:01;2.65;;;0.77;;
60653;SDS011;46476;53.614;10.048;2022-07-01T06:42:27;0.88;;;0.40;;
60653;SDS011;46476;53.614;10.048;2022-07-01T06:44:52;0.95;;;0.50;;
60653;SDS011;46476;53.614;10.048;2022-07-01T06:47:18;2.08;;;0.70;;
60653;SDS011;46476;53.614;10.048;2022-07-01T06:49:43;2.17;;;1.02;;
60653;SDS011;46476;53.614;10.048;2022-07-01T06:52:09;3.50;;;1.00;;
60653;SDS011;46476;53.614;10.048;2022-07-01T06:54:34;1.63;;;0.60;;
60653;SDS011;46476;53.614;10.048;2022-07-01T06:57:02;3.60;;;0.95;;
60653;SDS011;46476;53.614;10.048;2022-07-01T06:59:31;2.10;;;0.77;;
60653;SDS011;46476;53.614;10.048;2022-07-01T07:01:57;2.67;;;0.70;;
60653;SDS011;46476;53.614;10.048;2022-07-01T07:04:22;2.10;;;0.75;;
60653;SDS011;46476;53.614;10.048;2022-07-01T07:06:47;1.65;;;0.80;;
60653;SDS011;46476;53.614;10.048;2022-07-01T07:09:13;2.95;;;0.85;;
60653;SDS011;46476;53.614;10.048;2022-07-01T07:11:38;1.67;;;0.73;;
60653;SDS011;46476;53.614;10.048;2022-07-01T07:14:03;3.78;;;0.90;;
60653;SDS011;46476;53.614;10.048;2022-07-01T07:16:28;1.85;;;0.68;;
60653;SDS011;46476;53.614;10.048;2022-07-01T07:18:54;1.58;;;0.90;;
60653;SDS011;46476;53.614;10.048;2022-07-01T07:21:19;2.25;;;0.63;;
60653;SDS011;46476;53.614;10.048;2022-07-01T07:23:45;2.30;;;0.70;;
60653;SDS011;46476;53.614;10.048;2022-07-01T07:26:10;2.50;;;0.85;;
60653;SDS011;46476;53.614;10.048;2022-07-01T07:28:36;3.55;;;1.10;;
60653;SDS011;46476;53.614;10.048;2022-07-01T07:31:02;3.30;;;0.88;;
60653;SDS011;46476;53.614;10.048;2022-07-01T07:33:28;3.45;;;0.73;;
60653;SDS011;46476;53.614;10.048;2022-07-01T07:35:53;2.22;;;0.90;;
60653;SDS011;46476;53.614;10.048;2022-07-01T07:38:19;2.88;;;1.00;;
60653;SDS011;46476;53.614;10.048;2022-07-01T07:40:44;1.52;;;0.93;;
60653;SDS011;46476;53.614;10.048;2022-07-01T07:43:10;1.20;;;0.80;;
60653;SDS011;46476;53.614;10.048;2022-07-01T07:45:35;1.33;;;0.80;;
60653;SDS011;46476;53.614;10.048;2022-07-01T07:48:00;3.25;;;1.10;;
60653;SDS011;46476;53.614;10.048;2022-07-01T07:50:27;3.30;;;1.00;;
60653;SDS011;46476;53.614;10.048;2022-07-01T07:52:53;1.60;;;0.93;;
60653;SDS011;46476;53.614;10.048;2022-07-01T07:55:18;3.97;;;1.10;;
60653;SDS011;46476;53.614;10.048;2022-07-01T07:57:44;3.00;;;1.00;;
60653;SDS011;46476;53.614;10.048;2022-07-01T08:00:10;4.72;;;1.10;;
60653;SDS011;46476;53.614;10.048;2022-07-01T08:02:38;1.80;;;0.82;;
60653;SDS011;46476;53.614;10.048;2022-07-01T08:05:08;0.93;;;0.70;;
60653;SDS011;46476;53.614;10.048;2022-07-01T08:07:38;2.80;;;0.70;;
60653;SDS011;46476;53.614;10.048;2022-07-01T08:10:06;3.70;;;1.02;;
60653;SDS011;46476;53.614;10.048;2022-07-01T08:12:33;3.38;;;0.95;;
60653;SDS011;46476;53.614;10.048;2022-07-01T08:14:59;2.20;;;0.90;;
60653;SDS011;46476;53.614;10.048;2022-07-01T08:17:24;1.02;;;0.60;;
60653;SDS011;46476;53.614;10.048;2022-07-01T08:19:50;1.55;;;0.50;;
60653;SDS011;46476;53.614;10.048;2022-07-01T08:22:15;1.60;;;0.65;;
60653;SDS011;46476;53.614;10.048;2022-07-01T08:24:41;2.83;;;0.70;;
60653;SDS011;46476;53.614;10.048;2022-07-01T08:27:06;1.17;;;0.80;;
60653;SDS011;46476;53.614;10.048;2022-07-01T08:29:31;2.47;;;0.60;;
60653;SDS011;46476;53.614;10.048;2022-07-01T08:31:57;0.98;;;0.70;;
60653;SDS011;46476;53.614;10.048;2022-07-01T08:34:22;2.20;;;0.70;;
60653;SDS011;46476;53.614;10.048;2022-07-01T08:36:48;2.38;;;0.80;;
60653;SDS011;46476;53.614;10.048;2022-07-01T08:39:13;2.15;;;0.80;;
60653;SDS011;46476;53.614;10.048;2022-07-01T08:41:39;1.40;;;0.82;;
60653;SDS011;46476;53.614;10.048;2022-07-01T08:44:06;1.85;;;0.90;;
60653;SDS011;46476;53.614;10.048;2022-07-01T08:46:31;1.77;;;0.60;;
60653;SDS011;46476;53.614;10.048;2022-07-01T08:48:58;2.25;;;0.90;;
60653;SDS011;46476;53.614;10.048;2022-07-01T08:51:23;0.80;;;0.60;;
60653;SDS011;46476;53.614;10.048;2022-07-01T08:53:48;1.83;;;0.95;;
60653;SDS011;46476;53.614;10.048;2022-07-01T08:56:14;3.60;;;0.70;;
60653;SDS011;46476;53.614;10.048;2022-07-01T08:58:58;0.95;;;0.85;;
60653;SDS011;46476;53.614;10.048;2022-07-01T09:01:25;1.67;;;1.20;;
60653;SDS011;46476;53.614;10.048;2022-07-01T09:03:55;2.40;;;0.80;;
60653;SDS011;46476;53.614;10.048;2022-07-01T09:06:37;1.98;;;1.00;;
60653;SDS011;46476;53.614;10.048;2022-07-01T09:09:12;2.55;;;0.80;;
60653;SDS011;46476;53.614;10.048;2022-07-01T09:11:52;1.20;;;1.00;;
60653;SDS011;46476;53.614;10.048;2022-07-01T09:14:19;1.88;;;0.73;;
60653;SDS011;46476;53.614;10.048;2022-07-01T09:16:49;1.25;;;0.93;;
60653;SDS011;46476;53.614;10.048;2022-07-01T09:19:17;2.70;;;1.10;;
60653;SDS011;46476;53.614;10.048;2022-07-01T09:21:48;1.10;;;0.77;;
60653;SDS011;46476;53.614;10.048;2022-07-01T09:24:34;1.10;;;0.80;;
60653;SDS011;46476;53.614;10.048;2022-07-01T09:27:07;1.65;;;0.80;;
60653;SDS011;46476;53.614;10.048;2022-07-01T09:29:38;1.17;;;1.00;;
60653;SDS011;46476;53.614;10.048;2022-07-01T09:32:16;1.85;;;1.10;;
60653;SDS011;46476;53.614;10.048;2022-07-01T09:34:43;2.13;;;0.93;;
60653;SDS011;46476;53.614;10.048;2022-07-01T09:37:14;2.63;;;1.10;;
60653;SDS011;46476;53.614;10.048;2022-07-01T09:42:19;2.13;;;1.15;;
60653;SDS011;46476;53.614;10.048;2022-07-01T09:47:32;2.47;;;1.10;;
60653;SDS011;46476;53.614;10.048;2022-07-01T09:49:59;1.27;;;1.15;;
60653;SDS011;46476;53.614;10.048;2022-07-01T09:52:24;2.92;;;1.15;;
60653;SDS011;46476;53.614;10.048;2022-07-01T09:54:50;1.63;;;0.93;;
60653;SDS011;46476;53.614;10.048;2022-07-01T09:57:17;2.20;;;1.13;;
60653;SDS011;46476;53.614;10.048;2022-07-01T09:59:43;3.03;;;1.00;;
60653;SDS011;46476;53.614;10.048;2022-07-01T10:02:09;2.75;;;1.33;;
60653;SDS011;46476;53.614;10.048;2022-07-01T10:04:36;1.25;;;1.10;;
60653;SDS011;46476;53.614;10.048;2022-07-01T10:12:36;1.70;;;0.90;;
60653;SDS011;46476;53.614;10.048;2022-07-01T10:15:11;1.98;;;1.25;;
60653;SDS011;46476;53.614;10.048;2022-07-01T10:17:46;2.35;;;1.00;;
60653;SDS011;46476;53.614;10.048;2022-07-01T10:20:17;1.73;;;1.00;;
60653;SDS011;46476;53.614;10.048;2022-07-01T10:23:00;1.13;;;0.75;;
60653;SDS011;46476;53.614;10.048;2022-07-01T10:25:41;1.05;;;0.70;;
60653;SDS011;46476;53.614;10.048;2022-07-01T10:31:03;1.67;;;0.80;;
60653;SDS011;46476;53.614;10.048;2022-07-01T10:33:34;2.45;;;1.00;;
60653;SDS011;46476;53.614;10.048;2022-07-01T10:38:34;1.40;;;1.00;;
60653;SDS011;46476;53.614;10.048;2022-07-01T10:40:59;2.28;;;1.10;;
60653;SDS011;46476;53.614;10.048;2022-07-01T10:43:37;1.92;;;1.30;;
60653;SDS011;46476;53.614;10.048;2022-07-01T10:46:05;1.58;;;1.30;;
60653;SDS011;46476;53.614;10.048;2022-07-01T10:48:31;1.30;;;1.08;;
60653;SDS011;46476;53.614;10.048;2022-07-01T10:50:57;1.63;;;1.13;;
60653;SDS011;46476;53.614;10.048;2022-07-01T10:53:22;2.97;;;1.05;;
60653;SDS011;46476;53.614;10.048;2022-07-01T10:55:51;3.53;;;1.13;;
60653;SDS011;46476;53.614;10.048;2022-07-01T10:58:18;1.10;;;1.00;;
60653;SDS011;46476;53.614;10.048;2022-07-01T11:00:59;1.88;;;1.02;;
60653;SDS011;46476;53.614;10.048;2022-07-01T11:03:25;1.80;;;1.30;;
60653;SDS011;46476;53.614;10.048;2022-07-01T11:05:51;2.45;;;1.25;;
60653;SDS011;46476;53.614;10.048;2022-07-01T11:08:18;2.58;;;1.58;;
60653;SDS011;46476;53.614;10.048;2022-07-01T11:10:48;2.45;;;1.13;;
60653;SDS011;46476;53.614;10.048;2022-07-01T11:13:15;2.10;;;1.23;;
60653;SDS011;46476;53.614;10.048;2022-07-01T11:15:41;2.75;;;1.63;;
60653;SDS011;46476;53.614;10.048;2022-07-01T11:18:10;4.07;;;2.17;;
60653;SDS011;46476;53.614;10.048;2022-07-01T11:20:36;2.35;;;1.75;;
60653;SDS011;46476;53.614;10.048;2022-07-01T11:23:01;2.50;;;1.50;;
60653;SDS011;46476;53.614;10.048;2022-07-01T11:25:27;3.08;;;1.98;;
60653;SDS011;46476;53.614;10.048;2022-07-01T11:27:54;2.53;;;1.70;;
60653;SDS011;46476;53.614;10.048;2022-07-01T11:30:20;2.80;;;1.58;;
60653;SDS011;46476;53.614;10.048;2022-07-01T11:32:47;3.70;;;2.40;;
60653;SDS011;46476;53.614;10.048;2022-07-01T11:35:15;2.50;;;1.70;;
60653;SDS011;46476;53.614;10.048;2022-07-01T11:38:05;3.50;;;1.70;;
60653;SDS011;46476;53.614;10.048;2022-07-01T11:40:53;2.80;;;1.90;;
60653;SDS011;46476;53.614;10.048;2022-07-01T11:43:20;2.35;;;1.80;;
60653;SDS011;46476;53.614;10.048;2022-07-01T11:45:47;3.08;;;1.80;;
60653;SDS011;46476;53.614;10.048;2022-07-01T11:48:27;3.75;;;1.30;;
60653;SDS011;46476;53.614;10.048;2022-07-01T11:51:07;2.85;;;1.80;;
60653;SDS011;46476;53.614;10.048;2022-07-01T11:53:45;4.93;;;2.25;;
60653;SDS011;46476;53.614;10.048;2022-07-01T11:56:14;3.50;;;1.83;;
60653;SDS011;46476;53.614;10.048;2022-07-01T11:58:41;2.22;;;1.90;;
60653;SDS011;46476;53.614;10.048;2022-07-01T12:01:23;2.50;;;1.83;;
60653;SDS011;46476;53.614;10.048;2022-07-01T12:03:55;2.88;;;1.98;;
60653;SDS011;46476;53.614;10.048;2022-07-01T12:06:21;2.40;;;1.80;;
60653;SDS011;46476;53.614;10.048;2022-07-01T12:08:49;2.20;;;2.00;;
60653;SDS011;46476;53.614;10.048;2022-07-01T12:11:16;4.13;;;2.00;;
60653;SDS011;46476;53.614;10.048;2022-07-01T12:13:43;1.98;;;1.58;;
60653;SDS011;46476;53.614;10.048;2022-07-01T12:16:11;2.80;;;1.98;;
60653;SDS011;46476;53.614;10.048;2022-07-01T12:18:37;3.58;;;2.15;;
60653;SDS011;46476;53.614;10.048;2022-07-01T12:21:03;3.13;;;2.45;;
60653;SDS011;46476;53.614;10.048;2022-07-01T12:23:29;4.50;;;2.40;;
60653;SDS011;46476;53.614;10.048;2022-07-01T12:25:55;4.28;;;2.30;;
60653;SDS011;46476;53.614;10.048;2022-07-01T12:28:37;5.28;;;1.83;;
60653;SDS011;46476;53.614;10.048;2022-07-01T12:31:07;2.63;;;1.88;;
60653;SDS011;46476;53.614;10.048;2022-07-01T12:33:35;2.63;;;1.83;;
60653;SDS011;46476;53.614;10.048;2022-07-01T12:36:02;2.90;;;1.90;;
60653;SDS011;46476;53.614;10.048;2022-07-01T12:38:28;4.70;;;1.80;;
60653;SDS011;46476;53.614;10.048;2022-07-01T12:40:54;3.55;;;2.00;;
60653;SDS011;46476;53.614;10.048;2022-07-01T12:43:23;3.15;;;1.85;;
60653;SDS011;46476;53.614;10.048;2022-07-01T12:45:50;3.10;;;2.30;;
60653;SDS011;46476;53.614;10.048;2022-07-01T12:48:15;3.78;;;2.08;;
60653;SDS011;46476;53.614;10.048;2022-07-01T12:50:40;4.32;;;2.20;;
60653;SDS011;46476;53.614;10.048;2022-07-01T12:53:16;3.47;;;2.08;;
60653;SDS011;46476;53.614;10.048;2022-07-01T12:55:44;3.17;;;1.73;;
60653;SDS011;46476;53.614;10.048;2022-07-01T12:58:12;3.13;;;2.13;;
60653;SDS011;46476;53.614;10.048;2022-07-01T13:00:46;2.55;;;1.70;;
60653;SDS011;46476;53.614;10.048;2022-07-01T13:03:13;3.65;;;1.60;;
60653;SDS011;46476;53.614;10.048;2022-07-01T13:05:39;3.67;;;2.03;;
60653;SDS011;46476;53.614;10.048;2022-07-01T13:08:06;3.95;;;2.35;;
60653;SDS011;46476;53.614;10.048;2022-07-01T13:10:33;3.63;;;1.73;;
60653;SDS011;46476;53.614;10.048;2022-07-01T13:12:58;2.20;;;1.73;;
60653;SDS011;46476;53.614;10.048;2022-07-01T13:15:23;4.00;;;2.20;;
60653;SDS011;46476;53.614;10.048;2022-07-01T13:17:49;2.75;;;1.85;;
60653;SDS011;46476;53.614;10.048;2022-07-01T13:20:15;4.53;;;2.05;;
60653;SDS011;46476;53.614;10.048;2022-07-01T13:22:42;5.28;;;2.05;;
60653;SDS011;46476;53.614;10.048;2022-07-01T13:25:08;1.75;;;1.10;;
60653;SDS011;46476;53.614;10.048;2022-07-01T13:27:33;4.13;;;1.30;;
60653;SDS011;46476;53.614;10.048;2022-07-01T13:29:59;4.35;;;1.50;;
60653;SDS011;46476;53.614;10.048;2022-07-01T13:32:25;3.13;;;1.63;;
60653;SDS011;46476;53.614;10.048;2022-07-01T13:34:50;3.45;;;1.67;;
60653;SDS011;46476;53.614;10.048;2022-07-01T13:37:16;3.08;;;1.60;;
60653;SDS011;46476;53.614;10.048;2022-07-01T13:39:41;2.25;;;1.42;;
60653;SDS011;46476;53.614;10.048;2022-07-01T13:42:07;2.63;;;1.70;;
60653;SDS011;46476;53.614;10.048;2022-07-01T13:44:33;3.65;;;2.00;;
60653;SDS011;46476;53.614;10.048;2022-07-01T13:47:01;2.55;;;1.45;;
60653;SDS011;46476;53.614;10.048;2022-07-01T13:49:29;4.05;;;1.70;;
60653;SDS011;46476;53.614;10.048;2022-07-01T13:51:55;3.83;;;1.92;;
60653;SDS011;46476;53.614;10.048;2022-07-01T13:54:21;3.90;;;1.80;;
60653;SDS011;46476;53.614;10.048;2022-07-01T13:59:14;2.60;;;1.90;;
60653;SDS011;46476;53.614;10.048;2022-07-01T14:01:39;3.38;;;1.50;;
60653;SDS011;46476;53.614;10.048;2022-07-01T14:04:04;4.43;;;1.90;;
60653;SDS011;46476;53.614;10.048;2022-07-01T14:06:30;3.50;;;2.30;;
60653;SDS011;46476;53.614;10.048;2022-07-01T14:08:55;2.47;;;1.80;;
60653;SDS011;46476;53.614;10.048;2022-07-01T14:11:21;1.70;;;1.60;;
60653;SDS011;46476;53.614;10.048;2022-07-01T14:13:47;3.33;;;1.60;;
60653;SDS011;46476;53.614;10.048;2022-07-01T14:16:12;2.72;;;1.42;;
60653;SDS011;46476;53.614;10.048;2022-07-01T14:18:38;4.35;;;1.80;;
60653;SDS011;46476;53.614;10.048;2022-07-01T14:21:04;2.92;;;1.80;;
60653;SDS011;46476;53.614;10.048;2022-07-01T14:23:30;4.90;;;1.88;;
60653;SDS011;46476;53.614;10.048;2022-07-01T14:25:56;3.03;;;2.05;;
60653;SDS011;46476;53.614;10.048;2022-07-01T14:28:21;2.90;;;1.95;;
60653;SDS011;46476;53.614;10.048;2022-07-01T14:30:47;3.88;;;2.10;;
60653;SDS011;46476;53.614;10.048;2022-07-01T14:33:14;3.20;;;1.70;;
60653;SDS011;46476;53.614;10.048;2022-07-01T14:35:40;2.47;;;1.88;;
60653;SDS011;46476;53.614;10.048;2022-07-01T14:38:06;3.83;;;1.92;;
60653;SDS011;46476;53.614;10.048;2022-07-01T14:40:31;4.10;;;1.80;;
60653;SDS011;46476;53.614;10.048;2022-07-01T14:42:59;1.90;;;1.60;;
60653;SDS011;46476;53.614;10.048;2022-07-01T14:45:25;2.92;;;1.92;;
60653;SDS011;46476;53.614;10.048;2022-07-01T14:47:50;3.45;;;2.33;;
60653;SDS011;46476;53.614;10.048;2022-07-01T14:50:15;2.17;;;1.88;;